ATMO2: Muddy Boggy Creek at Atoka

Data processed at Wed May 22 2019 23:50


All information presented herein is the property of the government of the United States of America and may be revised or deleted at any time without prior notice.
Dissemination of this information without the expressed written consent of the Public Affairs Office, Tulsa District U.S. Army Corps of Engineers is strictly prohibited.
These data are gathered electronically and, as presented, have not undergone any form of quality control. These data are not guaranteed to be valid or correct.
Go to home page.
Go to station list.
Go to home page.

Downstream station:


Previous Day
Next Day
Current Day
    
SHEF ID:       ATMO2     Muddy Boggy Creek at Atoka, OK
STATION TYPE:  

               PRECIP     STAGE  RIV-FLOW   VOLTAGE
                   in        ft       cfs      volt
              Ccp-Rev   Ccp-Rev   Ccp-Rev   Ccp-Rev
(US/Central)
05/22 00:00      0.00     22.78      2490     12.80
05/22 01:00      0.00     23.05      2715     12.80
05/22 02:00      0.00     23.38      3012     12.70
05/22 03:00      0.00     23.56      3186     12.70
05/22 04:00      0.00     23.69      3317     12.70
05/22 05:00      0.00     23.86      3495     12.70
05/22 06:00      0.00     23.99      3636     12.60
05/22 07:00      0.00     24.10      3760     12.80
05/22 08:00      0.00     24.17      3834     13.20
05/22 09:00      0.00     24.25      3870     13.30
05/22 10:00      0.00     24.26      3875     14.00
05/22 11:00      0.00     24.36      3921     13.90
05/22 12:00      0.00     24.39      3935     13.90
05/22 13:00      0.00     24.37      3925     13.80
05/22 14:00      0.00     24.42      3949     13.90
05/22 15:00      0.00     24.40      3939     13.80
05/22 16:00      0.00     24.33      3907     13.80
05/22 17:00      0.00     24.28      3884     13.80
05/22 18:00      0.00     24.19      3843     13.70
05/22 19:00      0.00     24.30      3893     13.00
05/22 20:00      0.00     24.07      3726     12.80
05/22 21:00      0.00     24.01      3659     12.80
05/22 22:00      0.00     23.93      3570     12.80
05/22 23:00      ----      ----      ----      ----